Time;durP1;ratioP1;P1;durP2;ratioP2;P2;SDS_P1;SDS_P2;PMS_P1;PMS_P2;Temp;Humidity;BMP_temperature;BMP_pressure;BME280_temperature;BME280_humidity;BME280_pressure;Samples;Min_cycle;Max_cycle;Signal;HPM_P1;HPM_P2
2022/07/06 00:01:19;;;;;;;;;;;;;;;24.09;34.93;100196.84;5016267;28;19994;-80
2022/07/06 00:03:44;;;;;;;;;;;;;;;24.09;34.96;100196.84;5016272;28;20275;-80
2022/07/06 00:06:09;;;;;;;;;;;;;;;24.09;35.10;100205.03;5016300;28;19918;-81
2022/07/06 00:08:35;;;;;;;;;;;;;;;24.09;34.92;100202.31;5016078;28;20360;-79
2022/07/06 00:11:00;;;;;;;;;;;;;;;24.09;35.05;100204.25;5016008;28;20356;-81
2022/07/06 00:13:26;;;;;;;;;;;;;;;24.08;34.90;100195.25;5015911;28;19913;-78
2022/07/06 00:15:51;;;;;;;;;;;;;;;24.07;34.80;100193.59;5021657;28;19914;-81
2022/07/06 00:18:16;;;;;;;;;;;;;;;24.09;35.13;100196.84;5024219;28;19928;-80
2022/07/06 00:20:41;;;;;;;;;;;;;;;24.08;34.95;100195.25;5017871;28;20371;-80
2022/07/06 00:23:07;;;;;;;;;;;;;;;24.06;34.87;100191.97;5022897;28;19913;-79
2022/07/06 00:25:32;;;;;;;;;;;;;;;24.08;34.99;100192.50;5026233;28;19925;-79
2022/07/06 00:27:57;;;;;;;;;;;;;;;24.07;34.79;100190.06;5026938;28;20427;-81
2022/07/06 00:30:22;;;;;;;;;;;;;;;24.07;34.92;100187.31;5031251;28;19924;-79
2022/07/06 00:32:48;;;;;;;;;;;;;;;24.07;35.10;100193.59;5025909;28;19944;-81
2022/07/06 00:35:13;;;;;;;;;;;;;;;24.08;34.99;100188.97;5026175;28;19940;-78
2022/07/06 00:37:39;;;;;;;;;;;;;;;24.07;35.00;100192.78;5026016;28;20019;-79
2022/07/06 00:40:04;;;;;;;;;;;;;;;24.06;34.94;100191.97;5027577;28;19937;-79
2022/07/06 00:42:29;;;;;;;;;;;;;;;24.06;34.89;100197.44;5027684;28;19941;-78
2022/07/06 00:44:55;;;;;;;;;;;;;;;24.06;35.11;100185.69;5025484;28;19914;-80
2022/07/06 00:47:20;;;;;;;;;;;;;;;24.06;34.93;100189.25;5022138;28;19913;-79
2022/07/06 00:52:29;;;;;;;;;;;;;;;24.05;34.99;100190.34;5015692;28;20367;-82
2022/07/06 00:54:55;;;;;;;;;;;;;;;24.04;34.64;100185.97;5013817;28;19913;-80
2022/07/06 00:57:20;;;;;;;;;;;;;;;24.05;34.73;100186.81;5015449;28;19936;-82
2022/07/06 00:59:45;;;;;;;;;;;;;;;24.05;34.80;100190.34;5013840;28;20349;-80
2022/07/06 01:02:10;;;;;;;;;;;;;;;24.04;34.99;100188.69;5013501;28;20298;-80
2022/07/06 01:04:36;;;;;;;;;;;;;;;24.05;34.93;100189.53;5013883;28;19913;-80
2022/07/06 01:07:01;;;;;;;;;;;;;;;24.04;34.61;100185.97;5015170;28;20246;-79
2022/07/06 01:09:26;;;;;;;;;;;;;;;24.04;34.79;100188.69;5014512;28;20279;-81
2022/07/06 01:11:52;;;;;;;;;;;;;;;24.04;34.84;100193.34;5014742;28;19913;-77
2022/07/06 01:14:17;;;;;;;;;;;;;;;24.04;34.81;100196.88;5014713;28;20245;-83
2022/07/06 01:16:45;;;;;;;;;;;;;;;24.04;35.01;100187.88;5014763;28;19917;-80
2022/07/06 01:19:10;;;;;;;;;;;;;;;24.03;34.89;100192.53;5014512;28;19920;-80
2022/07/06 01:21:37;;;;;;;;;;;;;;;24.03;34.64;100192.53;4997010;28;19958;-82
2022/07/06 01:24:02;;;;;;;;;;;;;;;24.04;34.81;100187.88;4994663;28;19920;-79
2022/07/06 01:26:28;;;;;;;;;;;;;;;24.03;34.85;100187.09;4994985;28;19914;-81
2022/07/06 01:28:53;;;;;;;;;;;;;;;24.03;34.80;100189.81;4994686;28;20374;-78
2022/07/06 01:31:22;;;;;;;;;;;;;;;24.04;34.67;100193.34;4994762;28;19913;-82
2022/07/06 01:33:54;;;;;;;;;;;;;;;24.03;34.76;100186.28;4998444;28;19917;-80
2022/07/06 01:36:19;;;;;;;;;;;;;;;24.03;34.80;100192.53;5014157;28;19928;-80
2022/07/06 01:38:45;;;;;;;;;;;;;;;24.03;34.85;100186.28;5014110;28;19917;-82
2022/07/06 01:41:11;;;;;;;;;;;;;;;24.03;34.71;100191.72;4996545;28;19914;-80
2022/07/06 01:43:37;;;;;;;;;;;;;;;24.02;34.72;100190.91;5013936;28;19913;-81
2022/07/06 01:46:02;;;;;;;;;;;;;;;24.02;34.98;100192.81;5014380;28;20245;-80
2022/07/06 01:48:27;;;;;;;;;;;;;;;24.02;34.71;100190.91;4996354;28;20383;-80
2022/07/06 01:50:52;;;;;;;;;;;;;;;24.02;34.79;100190.09;5014224;28;19917;-83
2022/07/06 01:53:18;;;;;;;;;;;;;;;24.03;34.75;100197.19;5014860;28;19913;-80
2022/07/06 01:55:43;;;;;;;;;;;;;;;24.02;34.89;100193.63;5014028;28;20371;-81
2022/07/06 01:58:09;;;;;;;;;;;;;;;24.02;34.73;100201.81;5014186;28;19920;-80
2022/07/06 02:00:34;;;;;;;;;;;;;;;24.02;34.67;100195.56;5014201;28;19914;-81
2022/07/06 02:02:59;;;;;;;;;;;;;;;24.00;35.07;100185.72;5013861;28;19913;-82
2022/07/06 02:05:24;;;;;;;;;;;;;;;24.01;35.01;100189.28;5014110;28;19952;-81
2022/07/06 02:07:50;;;;;;;;;;;;;;;24.01;34.83;100194.75;5013986;28;20276;-82
2022/07/06 02:10:15;;;;;;;;;;;;;;;24.00;34.83;100184.91;4996227;28;19920;-80
2022/07/06 02:12:40;;;;;;;;;;;;;;;24.01;35.07;100192.00;4996527;28;19913;-83
2022/07/06 02:15:06;;;;;;;;;;;;;;;24.02;34.93;100190.09;5013738;28;19913;-80
2022/07/06 02:17:31;;;;;;;;;;;;;;;24.03;35.10;100186.28;5014219;28;20041;-81
2022/07/06 02:19:56;;;;;;;;;;;;;;;23.99;35.28;100186.84;5013906;28;19918;-79
2022/07/06 02:22:22;;;;;;;;;;;;;;;23.98;35.30;100189.84;4996770;28;19952;-81
2022/07/06 02:24:47;;;;;;;;;;;;;;;23.98;35.08;100190.66;5013613;28;20301;-83
2022/07/06 02:27:12;;;;;;;;;;;;;;;23.98;35.05;100192.56;5013717;28;19921;-80
2022/07/06 02:29:37;;;;;;;;;;;;;;;23.99;35.18;100191.44;5013905;28;19970;-81
2022/07/06 02:32:03;;;;;;;;;;;;;;;24.00;35.09;100190.38;4996288;28;20338;-77
2022/07/06 02:34:28;;;;;;;;;;;;;;;23.99;35.42;100191.44;5013460;28;19917;-82
2022/07/06 02:36:53;;;;;;;;;;;;;;;23.98;35.30;100184.38;5012576;28;19944;-80
2022/07/06 02:39:19;;;;;;;;;;;;;;;23.99;35.45;100186.84;5012687;28;19936;-81
2022/07/06 02:41:44;;;;;;;;;;;;;;;23.98;35.18;100189.84;5013576;28;20325;-82
2022/07/06 02:44:09;;;;;;;;;;;;;;;23.98;35.48;100184.38;5013439;28;19914;-79
2022/07/06 02:46:34;;;;;;;;;;;;;;;23.99;35.37;100186.00;5013528;28;19913;-83
2022/07/06 02:49:00;;;;;;;;;;;;;;;23.99;35.55;100186.84;5013809;28;19914;-80
2022/07/06 02:51:25;;;;;;;;;;;;;;;24.00;35.45;100182.19;5012344;28;20019;-82
2022/07/06 02:53:50;;;;;;;;;;;;;;;23.93;35.51;100170.75;5012546;28;19988;-79
2022/07/06 02:56:15;;;;;;;;;;;;;;;23.99;35.47;100186.84;5015516;28;19983;-81
2022/07/06 02:58:41;;;;;;;;;;;;;;;23.99;35.38;100184.09;5017496;28;19913;-80
2022/07/06 03:01:06;;;;;;;;;;;;;;;23.99;35.41;100188.72;5017251;28;20307;-81
2022/07/06 03:03:32;;;;;;;;;;;;;;;23.99;35.42;100177.81;5016942;28;20095;-80
2022/07/06 03:05:57;;;;;;;;;;;;;;;23.99;35.59;100186.00;5017139;28;19913;-80
2022/07/06 03:08:22;;;;;;;;;;;;;;;23.99;35.51;100191.44;5016853;28;20368;-81
2022/07/06 03:10:48;;;;;;;;;;;;;;;24.00;35.70;100193.09;5017068;28;19914;-80
2022/07/06 03:13:13;;;;;;;;;;;;;;;23.99;35.81;100192.28;5016861;28;20368;-82
2022/07/06 03:15:38;;;;;;;;;;;;;;;23.98;35.89;100195.31;5015466;28;20008;-79
2022/07/06 03:18:04;;;;;;;;;;;;;;;23.99;35.86;100191.44;5016996;28;19967;-82
2022/07/06 03:20:29;;;;;;;;;;;;;;;23.98;36.01;100184.38;5009724;28;19940;-80
2022/07/06 03:22:54;;;;;;;;;;;;;;;23.99;35.96;100186.00;4995758;28;19936;-80
2022/07/06 03:25:19;;;;;;;;;;;;;;;23.99;35.95;100191.44;4997232;28;19913;-80
2022/07/06 03:27:45;;;;;;;;;;;;;;;23.97;36.10;100191.75;4997197;28;20345;-80
2022/07/06 03:30:10;;;;;;;;;;;;;;;23.98;36.19;100184.38;4997060;28;20421;-81
2022/07/06 03:32:35;;;;;;;;;;;;;;;23.98;36.18;100189.84;4997095;28;19913;-78
2022/07/06 03:35:01;;;;;;;;;;;;;;;23.98;36.37;100185.19;4998681;28;19925;-80
2022/07/06 03:37:26;;;;;;;;;;;;;;;23.98;36.42;100192.56;5016249;28;19957;-79
2022/07/06 03:39:51;;;;;;;;;;;;;;;23.99;36.52;100191.44;5016503;28;19936;-81
2022/07/06 03:42:16;;;;;;;;;;;;;;;24.00;36.37;100182.19;5016155;28;20019;-77
2022/07/06 03:44:42;;;;;;;;;;;;;;;24.00;36.47;100185.72;5016538;28;19960;-80
2022/07/06 03:47:07;;;;;;;;;;;;;;;24.02;36.65;100179.97;5016405;28;20306;-77
2022/07/06 03:49:32;;;;;;;;;;;;;;;24.04;36.66;100183.22;5016352;28;19917;-82
2022/07/06 03:51:57;;;;;;;;;;;;;;;24.05;36.62;100179.41;4998653;28;20392;-79
2022/07/06 03:54:23;;;;;;;;;;;;;;;24.09;36.54;100180.47;5015926;28;19917;-79
2022/07/06 03:56:48;;;;;;;;;;;;;;;24.10;36.61;100182.13;5015898;28;19917;-81
2022/07/06 03:59:14;;;;;;;;;;;;;;;24.10;36.76;100181.31;5015896;28;19917;-79
2022/07/06 04:01:39;;;;;;;;;;;;;;;24.14;36.73;100185.09;5016165;28;19945;-82
2022/07/06 04:04:04;;;;;;;;;;;;;;;24.05;36.81;100176.69;5015829;28;19999;-79
2022/07/06 04:06:30;;;;;;;;;;;;;;;24.11;36.92;100177.47;5015545;28;20352;-81
2022/07/06 04:08:55;;;;;;;;;;;;;;;24.10;37.09;100182.13;5015276;28;19917;-82
2022/07/06 04:11:21;;;;;;;;;;;;;;;24.10;37.35;100181.31;5016019;28;19913;-80
2022/07/06 04:13:46;;;;;;;;;;;;;;;24.11;37.02;100178.31;5016530;28;20007;-82
2022/07/06 04:16:11;;;;;;;;;;;;;;;24.09;37.17;100180.47;5015574;28;19913;-79
2022/07/06 04:18:36;;;;;;;;;;;;;;;24.11;37.31;100172.84;5015994;28;20004;-81
2022/07/06 04:21:02;;;;;;;;;;;;;;;24.16;37.11;100177.44;5015786;28;20360;-80
2022/07/06 04:23:27;;;;;;;;;;;;;;;24.14;37.26;100172.25;5015411;28;19948;-80
2022/07/06 04:25:52;;;;;;;;;;;;;;;24.15;37.48;100173.91;5015705;28;19963;-82
2022/07/06 04:28:18;;;;;;;;;;;;;;;24.17;37.20;100171.69;5015264;28;20412;-79
2022/07/06 04:30:43;;;;;;;;;;;;;;;24.22;37.46;100170.03;5015601;28;19921;-81
2022/07/06 04:33:08;;;;;;;;;;;;;;;24.19;37.51;100174.94;4997587;28;20368;-81
2022/07/06 04:35:34;;;;;;;;;;;;;;;24.18;37.40;100167.88;4997520;28;20013;-81
2022/07/06 04:37:59;;;;;;;;;;;;;;;24.17;37.71;100174.41;5015515;28;20360;-83
2022/07/06 04:40:24;;;;;;;;;;;;;;;24.19;37.82;100164.03;5015206;28;20353;-79
2022/07/06 04:42:50;;;;;;;;;;;;;;;24.23;37.58;100168.94;5015426;28;19944;-81
2022/07/06 04:45:15;;;;;;;;;;;;;;;24.22;37.85;100161.84;5015035;28;20375;-80
2022/07/06 04:47:40;;;;;;;;;;;;;;;24.21;37.95;100162.94;4997498;28;19914;-80
2022/07/06 04:50:06;;;;;;;;;;;;;;;24.19;38.02;100158.56;5015206;28;19920;-82
2022/07/06 04:52:49;;;;;;;;;;;;;;;24.23;37.84;100161.53;5015131;28;19914;-79
2022/07/06 04:55:15;;;;;;;;;;;;;;;24.21;38.26;100168.41;4997508;28;19983;-80
2022/07/06 04:57:40;;;;;;;;;;;;;;;24.22;38.37;100167.31;5014839;28;19913;-81
2022/07/06 05:00:05;;;;;;;;;;;;;;;24.17;38.25;100160.78;5015064;28;19964;-80
2022/07/06 05:02:31;;;;;;;;;;;;;;;24.19;38.39;100172.22;5015202;28;20357;-79
2022/07/06 05:04:56;;;;;;;;;;;;;;;24.12;38.22;100163.53;5017412;28;19921;-82
2022/07/06 05:07:22;;;;;;;;;;;;;;;24.31;38.29;100171.06;5015671;28;20380;-81
2022/07/06 05:09:47;;;;;;;;;;;;;;;24.18;38.64;100173.34;5014859;28;19913;-80
2022/07/06 05:12:12;;;;;;;;;;;;;;;24.26;38.26;100173.81;4997058;28;19987;-83
2022/07/06 05:14:37;;;;;;;;;;;;;;;24.18;38.80;100173.34;5014488;28;19913;-79
2022/07/06 05:17:03;;;;;;;;;;;;;;;24.29;38.58;100171.34;5014541;28;19963;-81
2022/07/06 05:19:28;;;;;;;;;;;;;;;24.15;38.88;100162.16;5014309;28;19945;-82
2022/07/06 05:21:53;;;;;;;;;;;;;;;24.21;38.96;100171.94;5014386;28;19971;-79
2022/07/06 05:24:18;;;;;;;;;;;;;;;24.36;38.47;100168.28;5014465;28;19913;-80
2022/07/06 05:26:44;;;;;;;;;;;;;;;24.33;38.68;100161.47;5014316;28;19913;-82
2022/07/06 05:29:09;;;;;;;;;;;;;;;24.43;38.30;100163.31;5014996;28;19913;-81
2022/07/06 05:31:34;;;;;;;;;;;;;;;24.26;38.77;100160.16;5014198;28;20217;-81
2022/07/06 05:34:00;;;;;;;;;;;;;;;24.24;38.94;100160.44;5014094;28;19921;-83
2022/07/06 05:36:25;;;;;;;;;;;;;;;24.42;38.85;100158.13;5014813;28;19913;-81
2022/07/06 05:38:50;;;;;;;;;;;;;;;24.48;38.25;100166.00;5014559;28;20283;-80
2022/07/06 05:41:15;;;;;;;;;;;;;;;24.58;38.28;100161.56;5014495;28;19920;-83
2022/07/06 05:43:41;;;;;;;;;;;;;;;24.61;38.09;100161.84;5013969;28;20345;-81
2022/07/06 05:46:06;;;;;;;;;;;;;;;24.61;38.41;100153.63;5014620;28;19920;-81
2022/07/06 05:51:15;;;;;;;;;;;;;;;24.52;38.65;100156.13;5013761;28;19929;-82
2022/07/06 05:53:40;;;;;;;;;;;;;;;24.51;38.81;100161.91;5014340;28;19917;-81
2022/07/06 05:56:05;;;;;;;;;;;;;;;24.60;38.57;100152.00;5014160;28;20352;-81
2022/07/06 05:58:31;;;;;;;;;;;;;;;24.50;38.61;100152.88;5014600;28;20324;-81
2022/07/06 06:00:56;;;;;;;;;;;;;;;24.55;38.52;100141.13;4996483;28;19920;-82
2022/07/06 06:03:21;;;;;;;;;;;;;;;24.61;38.40;100142.72;5014112;28;19913;-82
2022/07/06 06:05:47;;;;;;;;;;;;;;;24.61;38.49;100150.06;5014218;28;20356;-80
2022/07/06 06:08:12;;;;;;;;;;;;;;;24.55;38.44;100150.13;4996155;28;19913;-83
2022/07/06 06:10:37;;;;;;;;;;;;;;;24.66;38.42;100144.56;5014053;28;19996;-83
2022/07/06 06:13:02;;;;;;;;;;;;;;;24.60;38.37;100143.00;5013693;28;20364;-81
2022/07/06 06:15:28;;;;;;;;;;;;;;;24.59;38.50;100146.81;5013536;28;19920;-82
2022/07/06 06:17:53;;;;;;;;;;;;;;;24.65;38.33;100140.22;5013865;28;19917;-83
2022/07/06 06:20:18;;;;;;;;;;;;;;;24.69;38.13;100144.78;5013980;28;19996;-80
2022/07/06 06:22:45;;;;;;;;;;;;;;;24.70;38.15;100135.50;5014354;28;20012;-81
2022/07/06 06:25:10;;;;;;;;;;;;;;;24.59;38.27;100138.63;5014576;28;19936;-82
2022/07/06 06:27:36;;;;;;;;;;;;;;;24.58;38.23;100139.72;5013741;28;20361;-84
2022/07/06 06:30:01;;;;;;;;;;;;;;;24.69;38.02;100138.53;5013359;28;19914;-81
2022/07/06 06:32:26;;;;;;;;;;;;;;;24.65;38.10;100137.50;5017205;28;19913;-81
2022/07/06 06:34:51;;;;;;;;;;;;;;;24.79;38.02;100127.50;5017166;28;19975;-84
2022/07/06 06:37:17;;;;;;;;;;;;;;;24.85;37.62;100129.09;5017372;28;20348;-81
2022/07/06 06:39:42;;;;;;;;;;;;;;;24.74;37.78;100116.63;5017773;28;19960;-82
2022/07/06 06:42:07;;;;;;;;;;;;;;;24.66;38.03;100112.59;5017613;28;19920;-82
2022/07/06 06:44:33;;;;;;;;;;;;;;;24.63;38.14;100118.66;5017416;28;19975;-83
2022/07/06 06:46:58;;;;;;;;;;;;;;;24.57;38.05;100116.25;5017009;28;20336;-82
2022/07/06 06:49:23;;;;;;;;;;;;;;;24.53;38.12;100115.97;5017754;28;19925;-81
2022/07/06 06:51:48;;;;;;;;;;;;;;;24.60;37.78;100112.94;5016614;28;19913;-82
2022/07/06 06:54:14;;;;;;;;;;;;;;;24.69;37.82;100109.28;5017096;28;19920;-83
2022/07/06 06:56:39;;;;;;;;;;;;;;;24.79;37.58;100113.84;5016864;28;20012;-79
2022/07/06 06:59:04;;;;;;;;;;;;;;;24.67;37.78;100118.88;5017257;28;19913;-82
2022/07/06 07:01:30;;;;;;;;;;;;;;;24.57;37.93;100108.84;5016943;28;20333;-81
2022/07/06 07:03:55;;;;;;;;;;;;;;;24.50;38.25;100109.16;5015701;28;20014;-83
2022/07/06 07:06:21;;;;;;;;;;;;;;;24.46;38.21;100102.66;5017269;28;19921;-80
2022/07/06 07:08:46;;;;;;;;;;;;;;;24.47;38.12;100098.81;5017096;28;20400;-81
2022/07/06 07:11:11;;;;;;;;;;;;;;;24.41;38.19;100096.44;5016954;28;20412;-80
2022/07/06 07:13:37;;;;;;;;;;;;;;;24.36;38.11;100100.81;5017031;28;19913;-82
2022/07/06 07:16:02;;;;;;;;;;;;;;;24.34;38.32;100102.22;5017243;28;19964;-82
2022/07/06 07:18:27;;;;;;;;;;;;;;;24.31;38.24;100100.84;5016996;28;20360;-81
2022/07/06 07:20:53;;;;;;;;;;;;;;;24.34;38.05;100108.50;5010131;28;20281;-81
2022/07/06 07:23:18;;;;;;;;;;;;;;;24.27;38.10;100104.47;4997454;28;19913;-82
2022/07/06 07:25:43;;;;;;;;;;;;;;;24.31;38.36;100102.78;4997089;28;20012;-82
2022/07/06 07:28:09;;;;;;;;;;;;;;;24.24;38.30;100094.91;4997366;28;19920;-80
2022/07/06 07:30:34;;;;;;;;;;;;;;;24.35;37.85;100106.56;4996761;28;20383;-80
2022/07/06 07:33:00;;;;;;;;;;;;;;;24.45;37.45;100095.53;4997151;28;19922;-81
2022/07/06 07:35:26;;;;;;;;;;;;;;;24.58;37.01;100096.84;5013883;28;19932;-82
2022/07/06 07:37:51;;;;;;;;;;;;;;;24.69;36.80;100095.63;5016636;28;20359;-80
2022/07/06 07:40:16;;;;;;;;;;;;;;;24.81;36.56;100091.69;5016509;28;19913;-82
2022/07/06 07:42:43;;;;;;;;;;;;;;;24.83;36.35;100103.94;5014741;28;19913;-82
2022/07/06 07:45:08;;;;;;;;;;;;;;;24.73;36.65;100104.03;5016317;28;20000;-82
2022/07/06 07:47:34;;;;;;;;;;;;;;;24.69;36.66;100101.06;5016068;28;20008;-80
2022/07/06 07:49:59;;;;;;;;;;;;;;;24.77;36.49;100102.38;5016663;28;19914;-79
2022/07/06 07:52:24;;;;;;;;;;;;;;;24.73;36.67;100093.13;5016907;28;20370;-81
2022/07/06 07:54:50;;;;;;;;;;;;;;;24.72;36.44;100097.78;5017140;28;20288;-82
2022/07/06 07:57:15;;;;;;;;;;;;;;;24.80;36.27;100088.16;5020441;28;19920;-82
2022/07/06 07:59:42;;;;;;;;;;;;;;;24.89;36.01;100082.84;5029367;28;20352;-79
2022/07/06 08:02:07;;;;;;;;;;;;;;;24.87;35.80;100091.34;5024110;28;19920;-80
2022/07/06 08:04:32;;;;;;;;;;;;;;;24.90;35.94;100096.19;5030844;28;19913;-80
2022/07/06 08:06:57;;;;;;;;;;;;;;;24.83;36.17;100095.75;5024084;28;19937;-83
2022/07/06 08:09:23;;;;;;;;;;;;;;;24.77;35.90;100091.44;5025925;28;19940;-82
2022/07/06 08:11:48;;;;;;;;;;;;;;;24.61;36.46;100085.34;5023394;28;19913;-80
2022/07/06 08:14:14;;;;;;;;;;;;;;;24.51;36.76;100086.22;5023096;28;20356;-81
2022/07/06 08:16:39;;;;;;;;;;;;;;;24.45;36.87;100084.63;5026815;28;19924;-82
2022/07/06 08:19:05;;;;;;;;;;;;;;;24.43;36.82;100092.28;5030323;28;19914;-83
2022/07/06 08:21:30;;;;;;;;;;;;;;;24.38;36.93;100086.88;5032146;28;19913;-80
2022/07/06 08:23:55;;;;;;;;;;;;;;;24.35;36.82;100085.56;5029797;28;20375;-80
2022/07/06 08:26:21;;;;;;;;;;;;;;;24.30;36.97;100087.50;5030585;28;19917;-82
2022/07/06 08:28:46;;;;;;;;;;;;;;;24.31;37.00;100094.59;5031787;28;19933;-83
2022/07/06 08:31:11;;;;;;;;;;;;;;;24.40;36.79;100092.88;5027611;28;19914;-79
2022/07/06 08:33:39;;;;;;;;;;;;;;;24.38;36.45;100090.41;5012358;28;19929;-80
2022/07/06 08:36:05;;;;;;;;;;;;;;;24.38;36.77;100095.06;5020740;28;20367;-81
2022/07/06 08:38:30;;;;;;;;;;;;;;;24.36;36.83;100102.75;5017505;28;19914;-82
2022/07/06 08:40:56;;;;;;;;;;;;;;;24.41;36.58;100107.34;5014566;28;20352;-82
2022/07/06 08:43:21;;;;;;;;;;;;;;;24.43;36.60;100107.88;5014491;28;19913;-80
2022/07/06 08:45:46;;;;;;;;;;;;;;;24.39;36.77;100107.63;5016003;28;20008;-80
2022/07/06 08:48:12;;;;;;;;;;;;;;;24.37;36.91;100107.13;5015535;28;19917;-82
2022/07/06 08:50:37;;;;;;;;;;;;;;;24.41;37.02;100089.03;5014996;28;20414;-82
2022/07/06 08:53:03;;;;;;;;;;;;;;;24.45;37.10;100103.75;5014441;28;19917;-81
2022/07/06 08:55:28;;;;;;;;;;;;;;;24.40;36.94;100098.31;5015341;28;19914;-80
2022/07/06 08:57:54;;;;;;;;;;;;;;;24.37;37.13;100094.25;5015929;28;19917;-81
2022/07/06 09:00:19;;;;;;;;;;;;;;;24.44;37.10;100093.94;5013899;28;20320;-82
2022/07/06 09:02:45;;;;;;;;;;;;;;;24.42;37.50;100096.13;5015668;28;20264;-83
2022/07/06 09:05:11;;;;;;;;;;;;;;;24.36;37.54;100086.34;5015070;28;19913;-80
2022/07/06 09:07:36;;;;;;;;;;;;;;;24.40;37.63;100092.88;5013684;28;19941;-80
2022/07/06 09:10:02;;;;;;;;;;;;;;;24.35;37.71;100085.56;5014558;28;19979;-81
2022/07/06 09:12:27;;;;;;;;;;;;;;;24.41;37.92;100083.56;5014680;28;19921;-82
2022/07/06 09:14:56;;;;;;;;;;;;;;;24.46;37.93;100094.47;5014947;28;19913;-82
2022/07/06 09:17:22;;;;;;;;;;;;;;;24.46;37.92;100085.47;5013128;28;20372;-80
2022/07/06 09:19:47;;;;;;;;;;;;;;;24.55;37.76;100083.75;5013211;28;19953;-81
2022/07/06 09:22:24;;;;;;;;;;;;;;;24.50;37.83;100070.91;4999222;28;20249;-81
2022/07/06 09:24:50;;;;;;;;;;;;;;;24.59;37.61;100078.53;4994769;28;19914;-81
2022/07/06 09:27:15;;;;;;;;;;;;;;;24.55;37.87;100084.56;4994933;28;19913;-82
2022/07/06 09:29:40;;;;;;;;;;;;;;;24.49;38.01;100080.22;4994643;28;20276;-80
2022/07/06 09:32:06;;;;;;;;;;;;;;;24.59;37.93;100076.59;4993379;28;19925;-80
2022/07/06 09:34:44;;;;;;;;;;;;;;;24.62;37.92;100075.22;5004084;28;19983;-79
2022/07/06 09:37:09;;;;;;;;;;;;;;;24.67;37.84;100080.63;5014446;28;19959;-82
2022/07/06 09:39:34;;;;;;;;;;;;;;;24.64;37.76;100073.00;5014081;28;19914;-83
2022/07/06 09:42:00;;;;;;;;;;;;;;;24.66;37.72;100079.00;5014388;28;19925;-81
2022/07/06 09:44:26;;;;;;;;;;;;;;;24.66;37.65;100076.25;4996731;28;19913;-79
2022/07/06 09:46:52;;;;;;;;;;;;;;;24.64;37.67;100082.00;5014208;28;19945;-80
2022/07/06 09:49:18;;;;;;;;;;;;;;;24.68;37.91;100091.28;5014537;28;19913;-79
2022/07/06 09:51:44;;;;;;;;;;;;;;;24.67;37.88;100092.38;5013756;28;19917;-81
2022/07/06 09:54:09;;;;;;;;;;;;;;;24.59;37.92;100090.25;5014394;28;20004;-81
2022/07/06 09:56:37;;;;;;;;;;;;;;;24.54;38.09;100085.69;5013944;28;19913;-80
2022/07/06 09:59:05;;;;;;;;;;;;;;;24.60;37.83;100091.09;5013606;28;20435;-79
2022/07/06 10:01:30;;;;;;;;;;;;;;;24.61;37.82;100087.25;5014405;28;20291;-78
2022/07/06 10:03:56;;;;;;;;;;;;;;;24.62;37.67;100105.28;4996632;28;19992;-80
2022/07/06 10:06:22;;;;;;;;;;;;;;;24.58;37.78;100104.19;5013351;28;20360;-80
2022/07/06 10:08:47;;;;;;;;;;;;;;;24.59;37.45;100103.09;4996159;28;20375;-79
2022/07/06 10:11:14;;;;;;;;;;;;;;;24.67;37.31;100114.22;5013569;28;20047;-80
2022/07/06 10:13:40;;;;;;;;;;;;;;;24.63;37.25;100104.97;4997939;28;19913;-79
2022/07/06 10:16:05;;;;;;;;;;;;;;;24.56;37.52;100096.31;5016024;28;20349;-78
2022/07/06 10:18:31;;;;;;;;;;;;;;;24.65;37.37;100110.16;4997286;28;20356;-78
2022/07/06 10:20:56;;;;;;;;;;;;;;;24.61;37.26;100095.44;4996531;28;19913;-82
2022/07/06 10:23:21;;;;;;;;;;;;;;;24.65;37.16;100097.31;5013587;28;20356;-81
2022/07/06 10:25:47;;;;;;;;;;;;;;;24.58;37.22;100101.47;4996149;28;19920;-79
2022/07/06 10:28:14;;;;;;;;;;;;;;;24.60;37.31;100097.34;4996604;28;19913;-79
2022/07/06 10:30:40;;;;;;;;;;;;;;;24.65;37.14;100107.44;4996604;28;20047;-79
2022/07/06 10:33:05;;;;;;;;;;;;;;;24.74;37.13;100109.22;4996197;28;20387;-81
2022/07/06 10:35:30;;;;;;;;;;;;;;;24.99;36.68;100109.25;4995678;28;19940;-81
2022/07/06 10:38:05;;;;;;;;;;;;;;;24.99;36.38;100106.50;5013459;28;20000;-78
2022/07/06 10:43:18;;;;;;;;;;;;;;;25.07;36.35;100111.34;5013415;28;19920;-81
2022/07/06 10:45:46;;;;;;;;;;;;;;;25.00;36.23;100106.22;5014205;28;19917;-79
2022/07/06 10:48:11;;;;;;;;;;;;;;;25.06;36.17;100105.06;5013661;28;19914;-78
2022/07/06 10:50:40;;;;;;;;;;;;;;;25.07;36.06;100100.41;5013752;28;20067;-78
2022/07/06 10:53:19;;;;;;;;;;;;;;;25.05;36.30;100105.34;5013346;28;19956;-78
2022/07/06 10:55:50;;;;;;;;;;;;;;;25.04;36.32;100104.56;4995997;28;19920;-78
2022/07/06 10:58:16;;;;;;;;;;;;;;;25.17;36.11;100097.53;5013426;28;19913;-78
2022/07/06 11:00:54;;;;;;;;;;;;;;;25.12;35.93;100087.47;4995835;28;20258;-78
2022/07/06 11:03:34;;;;;;;;;;;;;;;25.10;36.06;100088.88;5013329;28;19999;-78
2022/07/06 11:06:00;;;;;;;;;;;;;;;25.12;35.98;100082.00;5013005;28;19913;-76
2022/07/06 11:08:43;;;;;;;;;;;;;;;25.00;36.13;100089.00;5013272;28;20276;-78
2022/07/06 11:11:34;;;;;;;;;;;;;;;25.05;35.69;100075.28;5013382;28;19928;-78
2022/07/06 11:14:06;;;;;;;;;;;;;;;25.03;35.74;100072.03;5008391;28;19913;-80
2022/07/06 11:16:36;;;;;;;;;;;;;;;25.02;35.91;100064.91;5014134;28;19913;-79
2022/07/06 11:19:04;;;;;;;;;;;;;;;25.05;35.80;100058.88;5016914;28;19914;-79
2022/07/06 11:21:34;;;;;;;;;;;;;;;24.93;35.94;100062.81;5016771;28;19913;-77
2022/07/06 11:24:00;;;;;;;;;;;;;;;25.03;36.10;100061.91;5016422;28;19956;-79
2022/07/06 11:26:25;;;;;;;;;;;;;;;24.92;36.14;100050.28;5016610;28;19920;-78
2022/07/06 11:28:51;;;;;;;;;;;;;;;24.96;35.92;100058.72;4999024;28;19932;-79
2022/07/06 11:31:16;;;;;;;;;;;;;;;25.10;35.83;100053.34;5016615;28;20352;-80
2022/07/06 11:33:41;;;;;;;;;;;;;;;25.05;35.65;100047.94;5016618;28;19921;-80
2022/07/06 11:36:13;;;;;;;;;;;;;;;25.18;35.56;100049.97;4998836;28;20329;-79
2022/07/06 11:38:39;;;;;;;;;;;;;;;25.16;35.75;100041.22;5016468;28;19920;-79
2022/07/06 11:41:04;;;;;;;;;;;;;;;25.17;35.61;100036.59;5016505;28;19913;-79
2022/07/06 11:43:29;;;;;;;;;;;;;;;25.24;35.63;100039.75;4998937;28;19913;-79
2022/07/06 11:45:55;;;;;;;;;;;;;;;25.19;35.64;100043.38;5016559;28;20268;-79
2022/07/06 11:48:20;;;;;;;;;;;;;;;25.19;35.42;100037.91;5016101;28;19917;-80
2022/07/06 11:50:57;;;;;;;;;;;;;;;25.28;35.44;100036.19;4998902;28;19914;-80
2022/07/06 11:53:22;;;;;;;;;;;;;;;25.20;35.37;100033.25;5015939;28;20353;-81
2022/07/06 11:55:47;;;;;;;;;;;;;;;25.25;35.39;100022.22;5016177;28;19959;-80
2022/07/06 11:58:12;;;;;;;;;;;;;;;25.26;35.26;100021.97;5015818;28;19928;-79
2022/07/06 12:00:38;;;;;;;;;;;;;;;25.21;35.02;100013.81;4998381;28;19920;-80
2022/07/06 12:03:03;;;;;;;;;;;;;;;25.26;35.21;100011.03;5016012;28;19936;-79
2022/07/06 12:05:31;;;;;;;;;;;;;;;25.21;35.13;100027.47;5015978;28;20317;-80
2022/07/06 12:08:03;;;;;;;;;;;;;;;25.20;35.27;100020.41;5015588;28;19989;-80
2022/07/06 12:10:34;;;;;;;;;;;;;;;25.23;35.13;100028.03;5016223;28;19913;-80
2022/07/06 12:13:03;;;;;;;;;;;;;;;25.18;35.20;100030.00;5015599;28;19937;-81
2022/07/06 12:15:28;;;;;;;;;;;;;;;25.26;35.13;100019.25;5015474;28;19920;-81
2022/07/06 12:17:53;;;;;;;;;;;;;;;25.23;34.89;100022.56;5015474;28;19953;-80
2022/07/06 12:20:19;;;;;;;;;;;;;;;25.20;35.04;100028.59;5015324;28;19971;-79
2022/07/06 12:22:44;;;;;;;;;;;;;;;25.23;34.92;100022.56;5015657;28;19914;-80
2022/07/06 12:25:09;;;;;;;;;;;;;;;25.23;34.88;100016.25;5015334;28;19913;-78
2022/07/06 12:27:35;;;;;;;;;;;;;;;25.22;34.66;100018.19;4997717;28;20015;-79
2022/07/06 12:30:10;;;;;;;;;;;;;;;25.33;34.70;100016.13;5015739;28;19913;-81
2022/07/06 12:32:36;;;;;;;;;;;;;;;25.40;34.70;100015.78;5015406;28;19913;-76
2022/07/06 12:35:08;;;;;;;;;;;;;;;25.25;34.85;100005.81;5014987;28;19928;-81
2022/07/06 12:37:34;;;;;;;;;;;;;;;25.40;34.37;100010.31;5015459;28;20365;-81